Terminal Aerodrome Forecast
Issued by NWS

Home | Current Version | Previous Version | Text Only | Print | Product List | Glossary On
Versions: 1 2 3 4 5 6 7 8 9 10 11 12 13 14 15
000
FTUS44 KEPZ 211700
TAFTCS
TAF
KTCS 211722Z 2118/2218 06007KT P6SM SCT040 BKN060
     FM212000 14008KT P6SM VCTS BKN040CB BKN080
     FM220300 30008KT P6SM BKN040 BKN100
     FM221600 05006KT P6SM SCT040 SCT100=

USA.gov is the U.S. government's official web portal to all federal, state and local government web resources and services.